sensor_id;sensor_type;location;lat;lon;timestamp;temperature;humidity
6377;DHT22;3221;48.858;10.128;2022-09-03T00:04:59;15.20;89.80
6377;DHT22;3221;48.858;10.128;2022-09-03T00:10:11;15.20;89.80
6377;DHT22;3221;48.858;10.128;2022-09-03T00:12:43;15.20;90.00
6377;DHT22;3221;48.858;10.128;2022-09-03T00:15:16;15.20;90.00
6377;DHT22;3221;48.858;10.128;2022-09-03T00:18:13;15.20;90.10
6377;DHT22;3221;48.858;10.128;2022-09-03T00:20:44;15.20;90.10
6377;DHT22;3221;48.858;10.128;2022-09-03T00:23:19;15.20;90.20
6377;DHT22;3221;48.858;10.128;2022-09-03T00:25:53;15.20;90.30
6377;DHT22;3221;48.858;10.128;2022-09-03T00:28:25;15.10;90.40
6377;DHT22;3221;48.858;10.128;2022-09-03T00:31:06;15.10;90.40
6377;DHT22;3221;48.858;10.128;2022-09-03T00:33:38;15.10;90.50
6377;DHT22;3221;48.858;10.128;2022-09-03T00:36:42;15.10;90.60
6377;DHT22;3221;48.858;10.128;2022-09-03T00:39:12;15.10;90.60
6377;DHT22;3221;48.858;10.128;2022-09-03T00:50:29;15.00;90.90
6377;DHT22;3221;48.858;10.128;2022-09-03T00:55:56;14.90;90.90
6377;DHT22;3221;48.858;10.128;2022-09-03T01:01:39;14.90;91.10
6377;DHT22;3221;48.858;10.128;2022-09-03T01:04:39;14.90;91.20
6377;DHT22;3221;48.858;10.128;2022-09-03T01:07:19;14.90;91.30
6377;DHT22;3221;48.858;10.128;2022-09-03T01:21:22;14.80;91.60
6377;DHT22;3221;48.858;10.128;2022-09-03T01:27:08;14.80;91.70
6377;DHT22;3221;48.858;10.128;2022-09-03T01:30:04;14.80;91.80
6377;DHT22;3221;48.858;10.128;2022-09-03T01:33:02;14.80;91.90
6377;DHT22;3221;48.858;10.128;2022-09-03T01:40:40;14.80;91.90
6377;DHT22;3221;48.858;10.128;2022-09-03T01:43:31;14.80;91.90
6377;DHT22;3221;48.858;10.128;2022-09-03T01:46:12;14.80;92.10
6377;DHT22;3221;48.858;10.128;2022-09-03T01:49:33;14.70;92.10
6377;DHT22;3221;48.858;10.128;2022-09-03T01:51:32;14.70;92.10
6377;DHT22;3221;48.858;10.128;2022-09-03T01:57:14;14.70;92.20
6377;DHT22;3221;48.858;10.128;2022-09-03T02:00:03;14.70;92.40
6377;DHT22;3221;48.858;10.128;2022-09-03T02:02:37;14.70;92.50
6377;DHT22;3221;48.858;10.128;2022-09-03T02:07:38;14.70;92.60
6377;DHT22;3221;48.858;10.128;2022-09-03T02:10:16;14.60;92.60
6377;DHT22;3221;48.858;10.128;2022-09-03T02:12:51;14.70;92.50
6377;DHT22;3221;48.858;10.128;2022-09-03T02:15:21;14.70;92.50
6377;DHT22;3221;48.858;10.128;2022-09-03T02:17:53;14.70;92.70
6377;DHT22;3221;48.858;10.128;2022-09-03T02:20:24;14.60;92.70
6377;DHT22;3221;48.858;10.128;2022-09-03T02:22:53;14.60;93.10
6377;DHT22;3221;48.858;10.128;2022-09-03T02:25:23;14.60;92.90
6377;DHT22;3221;48.858;10.128;2022-09-03T02:27:51;14.60;92.90
6377;DHT22;3221;48.858;10.128;2022-09-03T02:30:19;14.60;92.90
6377;DHT22;3221;48.858;10.128;2022-09-03T02:32:46;14.60;92.90
6377;DHT22;3221;48.858;10.128;2022-09-03T02:35:13;14.70;93.00
6377;DHT22;3221;48.858;10.128;2022-09-03T02:37:40;14.70;93.00
6377;DHT22;3221;48.858;10.128;2022-09-03T02:40:07;14.70;92.90
6377;DHT22;3221;48.858;10.128;2022-09-03T02:42:36;14.70;92.90
6377;DHT22;3221;48.858;10.128;2022-09-03T02:45:30;14.60;93.00
6377;DHT22;3221;48.858;10.128;2022-09-03T02:47:59;14.70;93.00
6377;DHT22;3221;48.858;10.128;2022-09-03T02:50:26;14.70;93.10
6377;DHT22;3221;48.858;10.128;2022-09-03T02:52:53;14.70;93.00
6377;DHT22;3221;48.858;10.128;2022-09-03T02:55:20;14.70;93.00
6377;DHT22;3221;48.858;10.128;2022-09-03T02:57:47;14.80;93.00
6377;DHT22;3221;48.858;10.128;2022-09-03T03:00:14;14.70;93.00
6377;DHT22;3221;48.858;10.128;2022-09-03T03:02:43;14.80;93.10
6377;DHT22;3221;48.858;10.128;2022-09-03T03:05:17;14.80;93.00
6377;DHT22;3221;48.858;10.128;2022-09-03T03:07:44;14.70;93.00
6377;DHT22;3221;48.858;10.128;2022-09-03T03:10:11;14.70;93.20
6377;DHT22;3221;48.858;10.128;2022-09-03T03:12:39;14.70;93.20
6377;DHT22;3221;48.858;10.128;2022-09-03T03:15:06;14.70;93.30
6377;DHT22;3221;48.858;10.128;2022-09-03T03:17:33;14.70;93.30
6377;DHT22;3221;48.858;10.128;2022-09-03T03:20:00;14.70;93.30
6377;DHT22;3221;48.858;10.128;2022-09-03T03:22:27;14.80;93.30
6377;DHT22;3221;48.858;10.128;2022-09-03T03:24:54;14.70;93.40
6377;DHT22;3221;48.858;10.128;2022-09-03T03:27:23;14.60;93.50
6377;DHT22;3221;48.858;10.128;2022-09-03T03:29:50;14.60;93.60
6377;DHT22;3221;48.858;10.128;2022-09-03T03:32:17;14.60;93.60
6377;DHT22;3221;48.858;10.128;2022-09-03T03:34:44;14.60;93.70
6377;DHT22;3221;48.858;10.128;2022-09-03T03:37:12;14.50;93.90
6377;DHT22;3221;48.858;10.128;2022-09-03T03:39:39;14.50;93.90
6377;DHT22;3221;48.858;10.128;2022-09-03T03:42:06;14.50;93.90
6377;DHT22;3221;48.858;10.128;2022-09-03T03:44:33;14.50;93.90
6377;DHT22;3221;48.858;10.128;2022-09-03T03:47:01;14.50;93.90
6377;DHT22;3221;48.858;10.128;2022-09-03T03:49:28;14.50;94.00
6377;DHT22;3221;48.858;10.128;2022-09-03T03:51:55;14.50;94.10
6377;DHT22;3221;48.858;10.128;2022-09-03T03:54:22;14.50;94.20
6377;DHT22;3221;48.858;10.128;2022-09-03T03:56:49;14.50;94.00
6377;DHT22;3221;48.858;10.128;2022-09-03T03:59:21;14.50;94.10
6377;DHT22;3221;48.858;10.128;2022-09-03T04:01:48;14.50;94.10
6377;DHT22;3221;48.858;10.128;2022-09-03T04:04:16;14.50;94.20
6377;DHT22;3221;48.858;10.128;2022-09-03T04:06:43;14.50;94.30
6377;DHT22;3221;48.858;10.128;2022-09-03T04:09:14;14.30;94.30
6377;DHT22;3221;48.858;10.128;2022-09-03T04:11:43;14.40;94.50
6377;DHT22;3221;48.858;10.128;2022-09-03T04:14:16;14.30;94.40
6377;DHT22;3221;48.858;10.128;2022-09-03T04:16:45;14.40;94.50
6377;DHT22;3221;48.858;10.128;2022-09-03T04:19:13;14.40;94.50
6377;DHT22;3221;48.858;10.128;2022-09-03T04:21:41;14.40;94.60
6377;DHT22;3221;48.858;10.128;2022-09-03T04:24:08;14.30;94.60
6377;DHT22;3221;48.858;10.128;2022-09-03T04:26:36;14.30;94.70
6377;DHT22;3221;48.858;10.128;2022-09-03T04:29:06;14.30;94.70
6377;DHT22;3221;48.858;10.128;2022-09-03T04:31:34;14.30;94.80
6377;DHT22;3221;48.858;10.128;2022-09-03T04:34:01;14.30;94.90
6377;DHT22;3221;48.858;10.128;2022-09-03T04:36:30;14.30;94.90
6377;DHT22;3221;48.858;10.128;2022-09-03T04:39:03;14.20;94.90
6377;DHT22;3221;48.858;10.128;2022-09-03T04:41:33;14.30;95.00
6377;DHT22;3221;48.858;10.128;2022-09-03T04:44:00;14.30;94.90
6377;DHT22;3221;48.858;10.128;2022-09-03T04:46:30;14.30;94.80
6377;DHT22;3221;48.858;10.128;2022-09-03T04:49:01;14.30;94.90
6377;DHT22;3221;48.858;10.128;2022-09-03T04:51:31;14.30;95.00
6377;DHT22;3221;48.858;10.128;2022-09-03T04:54:01;14.40;94.90
6377;DHT22;3221;48.858;10.128;2022-09-03T04:56:30;14.40;95.00
6377;DHT22;3221;48.858;10.128;2022-09-03T04:59:01;14.40;94.90
6377;DHT22;3221;48.858;10.128;2022-09-03T05:01:31;14.50;94.80
6377;DHT22;3221;48.858;10.128;2022-09-03T05:03:59;14.50;94.80
6377;DHT22;3221;48.858;10.128;2022-09-03T05:06:28;14.50;94.80
6377;DHT22;3221;48.858;10.128;2022-09-03T05:08:56;14.50;94.80
6377;DHT22;3221;48.858;10.128;2022-09-03T05:11:25;14.50;94.60
6377;DHT22;3221;48.858;10.128;2022-09-03T05:13:54;14.50;94.70
6377;DHT22;3221;48.858;10.128;2022-09-03T05:16:24;14.60;94.80
6377;DHT22;3221;48.858;10.128;2022-09-03T05:18:55;14.60;94.80
6377;DHT22;3221;48.858;10.128;2022-09-03T05:21:22;14.60;94.70
6377;DHT22;3221;48.858;10.128;2022-09-03T05:23:51;14.70;94.80
6377;DHT22;3221;48.858;10.128;2022-09-03T05:26:25;14.60;95.00
6377;DHT22;3221;48.858;10.128;2022-09-03T05:29:06;14.70;94.90
6377;DHT22;3221;48.858;10.128;2022-09-03T05:31:37;14.70;95.00
6377;DHT22;3221;48.858;10.128;2022-09-03T05:34:06;14.60;95.10
6377;DHT22;3221;48.858;10.128;2022-09-03T05:36:42;14.60;95.10
6377;DHT22;3221;48.858;10.128;2022-09-03T05:39:09;14.70;95.00
6377;DHT22;3221;48.858;10.128;2022-09-03T05:41:39;14.60;95.10
6377;DHT22;3221;48.858;10.128;2022-09-03T05:44:06;14.60;95.10
6377;DHT22;3221;48.858;10.128;2022-09-03T05:46:36;14.60;95.20
6377;DHT22;3221;48.858;10.128;2022-09-03T05:49:07;14.60;95.10
6377;DHT22;3221;48.858;10.128;2022-09-03T05:51:37;14.60;95.20
6377;DHT22;3221;48.858;10.128;2022-09-03T05:54:09;14.60;95.20
6377;DHT22;3221;48.858;10.128;2022-09-03T05:56:39;14.60;95.00
6377;DHT22;3221;48.858;10.128;2022-09-03T05:59:09;14.70;95.30
6377;DHT22;3221;48.858;10.128;2022-09-03T06:01:43;14.70;95.40
6377;DHT22;3221;48.858;10.128;2022-09-03T06:04:20;14.70;95.40
6377;DHT22;3221;48.858;10.128;2022-09-03T06:06:47;14.80;95.50
6377;DHT22;3221;48.858;10.128;2022-09-03T06:09:18;14.70;96.00
6377;DHT22;3221;48.858;10.128;2022-09-03T06:11:46;14.60;96.40
6377;DHT22;3221;48.858;10.128;2022-09-03T06:14:18;14.70;96.60
6377;DHT22;3221;48.858;10.128;2022-09-03T06:16:48;14.70;96.60
6377;DHT22;3221;48.858;10.128;2022-09-03T06:19:16;14.60;97.00
6377;DHT22;3221;48.858;10.128;2022-09-03T06:21:44;14.60;96.80
6377;DHT22;3221;48.858;10.128;2022-09-03T06:24:15;14.60;97.30
6377;DHT22;3221;48.858;10.128;2022-09-03T06:26:43;14.60;97.10
6377;DHT22;3221;48.858;10.128;2022-09-03T06:29:11;14.70;97.60
6377;DHT22;3221;48.858;10.128;2022-09-03T06:31:38;14.70;97.00
6377;DHT22;3221;48.858;10.128;2022-09-03T06:34:06;14.80;97.20
6377;DHT22;3221;48.858;10.128;2022-09-03T06:36:33;14.70;97.30
6377;DHT22;3221;48.858;10.128;2022-09-03T06:39:01;14.80;97.10
6377;DHT22;3221;48.858;10.128;2022-09-03T06:41:30;14.80;97.60
6377;DHT22;3221;48.858;10.128;2022-09-03T06:44:01;14.90;97.70
6377;DHT22;3221;48.858;10.128;2022-09-03T06:46:31;14.90;97.70
6377;DHT22;3221;48.858;10.128;2022-09-03T06:48:59;14.90;97.60
6377;DHT22;3221;48.858;10.128;2022-09-03T06:51:29;14.90;97.40
6377;DHT22;3221;48.858;10.128;2022-09-03T06:54:02;15.00;97.60
6377;DHT22;3221;48.858;10.128;2022-09-03T06:56:29;15.00;97.80
6377;DHT22;3221;48.858;10.128;2022-09-03T06:59:11;15.00;97.70
6377;DHT22;3221;48.858;10.128;2022-09-03T07:01:39;15.00;98.10
6377;DHT22;3221;48.858;10.128;2022-09-03T07:04:11;15.00;98.20
6377;DHT22;3221;48.858;10.128;2022-09-03T07:06:39;15.10;98.30
6377;DHT22;3221;48.858;10.128;2022-09-03T07:09:10;15.10;98.60
6377;DHT22;3221;48.858;10.128;2022-09-03T07:11:39;15.10;98.50
6377;DHT22;3221;48.858;10.128;2022-09-03T07:14:20;15.10;98.90
6377;DHT22;3221;48.858;10.128;2022-09-03T07:25:13;15.20;99.90
6377;DHT22;3221;48.858;10.128;2022-09-03T07:27:40;15.20;99.90
6377;DHT22;3221;48.858;10.128;2022-09-03T07:30:08;15.20;99.90
6377;DHT22;3221;48.858;10.128;2022-09-03T07:32:35;15.20;99.90
6377;DHT22;3221;48.858;10.128;2022-09-03T07:35:06;15.30;99.90
6377;DHT22;3221;48.858;10.128;2022-09-03T07:37:34;15.30;99.90
6377;DHT22;3221;48.858;10.128;2022-09-03T07:40:01;15.30;99.90
6377;DHT22;3221;48.858;10.128;2022-09-03T07:42:28;15.30;99.90
6377;DHT22;3221;48.858;10.128;2022-09-03T07:44:56;15.40;99.90
6377;DHT22;3221;48.858;10.128;2022-09-03T07:47:24;15.40;99.90
6377;DHT22;3221;48.858;10.128;2022-09-03T07:49:52;15.50;99.90
6377;DHT22;3221;48.858;10.128;2022-09-03T07:52:19;15.50;99.90
6377;DHT22;3221;48.858;10.128;2022-09-03T07:54:46;15.70;99.90
6377;DHT22;3221;48.858;10.128;2022-09-03T07:57:13;15.70;99.90
6377;DHT22;3221;48.858;10.128;2022-09-03T07:59:40;15.80;99.90
6377;DHT22;3221;48.858;10.128;2022-09-03T08:02:07;15.80;99.90
6377;DHT22;3221;48.858;10.128;2022-09-03T08:04:34;15.90;99.90
6377;DHT22;3221;48.858;10.128;2022-09-03T08:07:01;15.90;99.90
6377;DHT22;3221;48.858;10.128;2022-09-03T08:09:29;16.00;99.90
6377;DHT22;3221;48.858;10.128;2022-09-03T08:11:58;16.00;99.90
6377;DHT22;3221;48.858;10.128;2022-09-03T08:14:25;16.10;99.90
6377;DHT22;3221;48.858;10.128;2022-09-03T08:16:52;16.10;99.90
6377;DHT22;3221;48.858;10.128;2022-09-03T08:19:19;16.30;99.90
6377;DHT22;3221;48.858;10.128;2022-09-03T08:21:46;16.30;99.90
6377;DHT22;3221;48.858;10.128;2022-09-03T08:24:15;16.40;99.90
6377;DHT22;3221;48.858;10.128;2022-09-03T08:26:42;16.60;99.90
6377;DHT22;3221;48.858;10.128;2022-09-03T08:29:17;16.60;99.90
6377;DHT22;3221;48.858;10.128;2022-09-03T08:31:44;16.70;99.90
6377;DHT22;3221;48.858;10.128;2022-09-03T08:34:11;16.80;99.90
6377;DHT22;3221;48.858;10.128;2022-09-03T08:36:40;16.80;99.90
6377;DHT22;3221;48.858;10.128;2022-09-03T08:39:08;16.80;99.90
6377;DHT22;3221;48.858;10.128;2022-09-03T08:42:13;16.90;99.90
6377;DHT22;3221;48.858;10.128;2022-09-03T08:44:48;16.90;99.90
6377;DHT22;3221;48.858;10.128;2022-09-03T08:47:31;17.10;99.90
6377;DHT22;3221;48.858;10.128;2022-09-03T08:50:16;17.10;99.90
6377;DHT22;3221;48.858;10.128;2022-09-03T08:55:46;17.20;99.90
6377;DHT22;3221;48.858;10.128;2022-09-03T08:58:21;17.30;99.90
6377;DHT22;3221;48.858;10.128;2022-09-03T09:00:56;17.30;99.90
6377;DHT22;3221;48.858;10.128;2022-09-03T09:03:52;17.30;99.90
6377;DHT22;3221;48.858;10.128;2022-09-03T09:18:46;17.30;99.90
6377;DHT22;3221;48.858;10.128;2022-09-03T09:20:53;17.50;99.90
6377;DHT22;3221;48.858;10.128;2022-09-03T09:23:33;17.50;99.90
6377;DHT22;3221;48.858;10.128;2022-09-03T09:26:07;17.50;99.90
6377;DHT22;3221;48.858;10.128;2022-09-03T09:28:37;17.50;99.90
6377;DHT22;3221;48.858;10.128;2022-09-03T09:31:10;17.50;99.90
6377;DHT22;3221;48.858;10.128;2022-09-03T09:33:41;17.50;99.90
6377;DHT22;3221;48.858;10.128;2022-09-03T09:36:11;17.60;99.90
6377;DHT22;3221;48.858;10.128;2022-09-03T09:38:43;17.60;99.90
6377;DHT22;3221;48.858;10.128;2022-09-03T09:41:17;17.70;99.90
6377;DHT22;3221;48.858;10.128;2022-09-03T09:43:46;17.70;99.90
6377;DHT22;3221;48.858;10.128;2022-09-03T09:46:21;17.80;99.90
6377;DHT22;3221;48.858;10.128;2022-09-03T09:48:51;17.80;99.90
6377;DHT22;3221;48.858;10.128;2022-09-03T09:51:29;17.80;99.90
6377;DHT22;3221;48.858;10.128;2022-09-03T09:54:16;17.90;99.90
6377;DHT22;3221;48.858;10.128;2022-09-03T09:56:45;17.80;99.90
6377;DHT22;3221;48.858;10.128;2022-09-03T09:59:13;17.90;99.90
6377;DHT22;3221;48.858;10.128;2022-09-03T10:01:42;18.00;99.90
6377;DHT22;3221;48.858;10.128;2022-09-03T10:04:28;18.00;99.90
6377;DHT22;3221;48.858;10.128;2022-09-03T10:07:28;17.90;99.90
6377;DHT22;3221;48.858;10.128;2022-09-03T10:12:45;18.00;99.90
6377;DHT22;3221;48.858;10.128;2022-09-03T10:15:26;18.10;99.90
6377;DHT22;3221;48.858;10.128;2022-09-03T10:18:14;18.00;99.90
6377;DHT22;3221;48.858;10.128;2022-09-03T10:21:04;18.10;99.90
6377;DHT22;3221;48.858;10.128;2022-09-03T10:26:35;18.10;99.90
6377;DHT22;3221;48.858;10.128;2022-09-03T10:29:04;18.10;99.90
6377;DHT22;3221;48.858;10.128;2022-09-03T10:34:11;18.20;99.90
6377;DHT22;3221;48.858;10.128;2022-09-03T10:36:54;18.40;99.90
6377;DHT22;3221;48.858;10.128;2022-09-03T10:39:30;18.40;99.90
6377;DHT22;3221;48.858;10.128;2022-09-03T10:42:24;18.60;99.90
6377;DHT22;3221;48.858;10.128;2022-09-03T10:47:46;18.80;99.90
6377;DHT22;3221;48.858;10.128;2022-09-03T10:50:26;18.80;99.90
6377;DHT22;3221;48.858;10.128;2022-09-03T10:53:18;18.80;99.90
6377;DHT22;3221;48.858;10.128;2022-09-03T10:55:59;18.70;99.90
6377;DHT22;3221;48.858;10.128;2022-09-03T10:58:49;19.00;99.90
6377;DHT22;3221;48.858;10.128;2022-09-03T11:07:23;19.20;99.90
6377;DHT22;3221;48.858;10.128;2022-09-03T11:12:36;19.40;99.90
6377;DHT22;3221;48.858;10.128;2022-09-03T11:15:10;19.50;99.90
6377;DHT22;3221;48.858;10.128;2022-09-03T11:17:45;19.50;99.90
6377;DHT22;3221;48.858;10.128;2022-09-03T11:20:16;19.50;99.90
6377;DHT22;3221;48.858;10.128;2022-09-03T11:22:45;19.60;99.90
6377;DHT22;3221;48.858;10.128;2022-09-03T11:25:15;19.70;99.90
6377;DHT22;3221;48.858;10.128;2022-09-03T11:27:54;19.70;99.90
6377;DHT22;3221;48.858;10.128;2022-09-03T11:30:26;19.70;99.90
6377;DHT22;3221;48.858;10.128;2022-09-03T11:32:58;19.80;99.90
6377;DHT22;3221;48.858;10.128;2022-09-03T11:35:36;19.80;99.90
6377;DHT22;3221;48.858;10.128;2022-09-03T11:38:05;19.70;99.90
6377;DHT22;3221;48.858;10.128;2022-09-03T11:40:39;19.80;99.90
6377;DHT22;3221;48.858;10.128;2022-09-03T11:43:23;19.80;99.90
6377;DHT22;3221;48.858;10.128;2022-09-03T11:48:44;19.80;99.90
6377;DHT22;3221;48.858;10.128;2022-09-03T11:54:00;19.70;99.90
6377;DHT22;3221;48.858;10.128;2022-09-03T11:56:29;19.80;99.90
6377;DHT22;3221;48.858;10.128;2022-09-03T12:01:34;19.90;99.90
6377;DHT22;3221;48.858;10.128;2022-09-03T12:04:07;19.90;99.90
6377;DHT22;3221;48.858;10.128;2022-09-03T12:12:08;19.90;99.90
6377;DHT22;3221;48.858;10.128;2022-09-03T12:20:40;20.10;99.90
6377;DHT22;3221;48.858;10.128;2022-09-03T12:23:11;20.00;99.90
6377;DHT22;3221;48.858;10.128;2022-09-03T12:25:44;19.90;99.90
6377;DHT22;3221;48.858;10.128;2022-09-03T12:28:17;19.80;99.90
6377;DHT22;3221;48.858;10.128;2022-09-03T12:30:50;19.80;99.90
6377;DHT22;3221;48.858;10.128;2022-09-03T12:33:21;19.90;99.90
6377;DHT22;3221;48.858;10.128;2022-09-03T12:35:59;20.00;99.90
6377;DHT22;3221;48.858;10.128;2022-09-03T12:38:28;19.90;99.90
6377;DHT22;3221;48.858;10.128;2022-09-03T12:40:55;19.90;99.90
6377;DHT22;3221;48.858;10.128;2022-09-03T12:43:50;19.90;99.90
6377;DHT22;3221;48.858;10.128;2022-09-03T12:46:22;19.80;99.90
6377;DHT22;3221;48.858;10.128;2022-09-03T12:49:02;19.80;99.90
6377;DHT22;3221;48.858;10.128;2022-09-03T12:51:51;19.80;99.90
6377;DHT22;3221;48.858;10.128;2022-09-03T12:54:31;19.70;99.90
6377;DHT22;3221;48.858;10.128;2022-09-03T12:56:59;19.70;99.90
6377;DHT22;3221;48.858;10.128;2022-09-03T12:59:28;19.60;99.90
6377;DHT22;3221;48.858;10.128;2022-09-03T13:02:00;19.50;99.90
6377;DHT22;3221;48.858;10.128;2022-09-03T13:04:32;19.50;99.90
6377;DHT22;3221;48.858;10.128;2022-09-03T13:07:09;19.80;99.90
6377;DHT22;3221;48.858;10.128;2022-09-03T13:09:38;19.90;99.90
6377;DHT22;3221;48.858;10.128;2022-09-03T13:12:06;19.90;99.90
6377;DHT22;3221;48.858;10.128;2022-09-03T13:15:06;19.80;99.90
6377;DHT22;3221;48.858;10.128;2022-09-03T13:20:47;19.30;99.90
6377;DHT22;3221;48.858;10.128;2022-09-03T13:31:31;18.50;99.90
6377;DHT22;3221;48.858;10.128;2022-09-03T13:34:12;18.30;99.90
6377;DHT22;3221;48.858;10.128;2022-09-03T13:37:08;18.10;99.90
6377;DHT22;3221;48.858;10.128;2022-09-03T13:40:14;18.00;99.90
6377;DHT22;3221;48.858;10.128;2022-09-03T13:42:47;18.00;99.90
6377;DHT22;3221;48.858;10.128;2022-09-03T13:45:38;17.80;99.90
6377;DHT22;3221;48.858;10.128;2022-09-03T13:48:19;17.90;99.90
6377;DHT22;3221;48.858;10.128;2022-09-03T13:51:15;17.80;99.90
6377;DHT22;3221;48.858;10.128;2022-09-03T14:02:19;17.50;99.90
6377;DHT22;3221;48.858;10.128;2022-09-03T14:05:05;17.50;99.90
6377;DHT22;3221;48.858;10.128;2022-09-03T14:07:46;17.50;99.90
6377;DHT22;3221;48.858;10.128;2022-09-03T14:16:19;17.30;99.90
6377;DHT22;3221;48.858;10.128;2022-09-03T14:19:14;17.30;99.90
6377;DHT22;3221;48.858;10.128;2022-09-03T14:26:56;17.20;99.90
6377;DHT22;3221;48.858;10.128;2022-09-03T14:29:29;17.20;99.90
6377;DHT22;3221;48.858;10.128;2022-09-03T14:37:43;17.10;99.90
6377;DHT22;3221;48.858;10.128;2022-09-03T15:00:20;17.30;99.90
6377;DHT22;3221;48.858;10.128;2022-09-03T15:06:19;17.20;99.90
6377;DHT22;3221;48.858;10.128;2022-09-03T15:11:58;17.40;99.90
6377;DHT22;3221;48.858;10.128;2022-09-03T15:14:52;17.30;99.90
6377;DHT22;3221;48.858;10.128;2022-09-03T15:17:53;17.30;99.90
6377;DHT22;3221;48.858;10.128;2022-09-03T15:20:51;17.30;99.90
6377;DHT22;3221;48.858;10.128;2022-09-03T15:38:00;17.50;99.90
6377;DHT22;3221;48.858;10.128;2022-09-03T15:40:49;17.60;99.90
6377;DHT22;3221;48.858;10.128;2022-09-03T15:43:29;17.60;99.90
6377;DHT22;3221;48.858;10.128;2022-09-03T15:49:02;17.60;99.90
6377;DHT22;3221;48.858;10.128;2022-09-03T15:51:34;17.60;99.90
6377;DHT22;3221;48.858;10.128;2022-09-03T15:54:22;17.50;99.90
6377;DHT22;3221;48.858;10.128;2022-09-03T15:57:38;17.50;99.90
6377;DHT22;3221;48.858;10.128;2022-09-03T16:00:16;17.80;99.90
6377;DHT22;3221;48.858;10.128;2022-09-03T16:05:27;17.60;99.90
6377;DHT22;3221;48.858;10.128;2022-09-03T16:14:09;17.50;99.90
6377;DHT22;3221;48.858;10.128;2022-09-03T16:16:52;17.40;99.90
6377;DHT22;3221;48.858;10.128;2022-09-03T16:19:44;17.40;99.90
6377;DHT22;3221;48.858;10.128;2022-09-03T16:22:32;17.40;99.90
6377;DHT22;3221;48.858;10.128;2022-09-03T16:25:10;17.40;99.90
6377;DHT22;3221;48.858;10.128;2022-09-03T16:27:59;17.40;99.90
6377;DHT22;3221;48.858;10.128;2022-09-03T16:33:34;17.40;99.90
6377;DHT22;3221;48.858;10.128;2022-09-03T16:36:28;17.40;99.90
6377;DHT22;3221;48.858;10.128;2022-09-03T16:47:40;17.30;99.90
6377;DHT22;3221;48.858;10.128;2022-09-03T16:50:24;17.30;99.90
6377;DHT22;3221;48.858;10.128;2022-09-03T16:56:08;17.30;99.90
6377;DHT22;3221;48.858;10.128;2022-09-03T16:58:47;17.30;99.90
6377;DHT22;3221;48.858;10.128;2022-09-03T17:01:37;17.30;99.90
6377;DHT22;3221;48.858;10.128;2022-09-03T17:15:50;17.20;99.90
6377;DHT22;3221;48.858;10.128;2022-09-03T17:19:05;17.10;99.90
6377;DHT22;3221;48.858;10.128;2022-09-03T17:27:30;17.10;99.90
6377;DHT22;3221;48.858;10.128;2022-09-03T17:33:05;17.00;99.90
6377;DHT22;3221;48.858;10.128;2022-09-03T17:49:32;16.90;99.90
6377;DHT22;3221;48.858;10.128;2022-09-03T17:52:17;16.80;99.90
6377;DHT22;3221;48.858;10.128;2022-09-03T17:54:50;16.80;99.90
6377;DHT22;3221;48.858;10.128;2022-09-03T17:57:31;16.80;99.90
6377;DHT22;3221;48.858;10.128;2022-09-03T18:00:08;16.80;99.90
6377;DHT22;3221;48.858;10.128;2022-09-03T18:02:39;16.80;99.90
6377;DHT22;3221;48.858;10.128;2022-09-03T18:05:25;16.70;99.90
6377;DHT22;3221;48.858;10.128;2022-09-03T18:08:14;16.70;99.90
6377;DHT22;3221;48.858;10.128;2022-09-03T18:16:58;16.60;99.90
6377;DHT22;3221;48.858;10.128;2022-09-03T18:22:58;16.60;99.90
6377;DHT22;3221;48.858;10.128;2022-09-03T18:25:49;16.60;99.90
6377;DHT22;3221;48.858;10.128;2022-09-03T18:28:44;16.50;99.90
6377;DHT22;3221;48.858;10.128;2022-09-03T18:31:31;16.50;99.90
6377;DHT22;3221;48.858;10.128;2022-09-03T18:34:20;16.50;99.90
6377;DHT22;3221;48.858;10.128;2022-09-03T18:37:09;16.40;99.90
6377;DHT22;3221;48.858;10.128;2022-09-03T18:39:55;16.40;99.90
6377;DHT22;3221;48.858;10.128;2022-09-03T18:46:04;16.40;99.90
6377;DHT22;3221;48.858;10.128;2022-09-03T18:49:34;16.40;99.90
6377;DHT22;3221;48.858;10.128;2022-09-03T18:52:40;16.40;99.90
6377;DHT22;3221;48.858;10.128;2022-09-03T18:58:49;16.30;99.90
6377;DHT22;3221;48.858;10.128;2022-09-03T19:01:39;16.30;99.90
6377;DHT22;3221;48.858;10.128;2022-09-03T19:10:20;16.20;99.90
6377;DHT22;3221;48.858;10.128;2022-09-03T19:13:31;16.20;99.90
6377;DHT22;3221;48.858;10.128;2022-09-03T19:22:11;16.10;99.90
6377;DHT22;3221;48.858;10.128;2022-09-03T19:25:07;16.10;99.90
6377;DHT22;3221;48.858;10.128;2022-09-03T19:28:14;16.10;99.90
6377;DHT22;3221;48.858;10.128;2022-09-03T19:31:39;16.10;99.90
6377;DHT22;3221;48.858;10.128;2022-09-03T19:34:54;16.10;99.90
6377;DHT22;3221;48.858;10.128;2022-09-03T19:38:12;16.10;99.90
6377;DHT22;3221;48.858;10.128;2022-09-03T19:41:47;16.10;99.90
6377;DHT22;3221;48.858;10.128;2022-09-03T19:47:11;15.90;99.90
6377;DHT22;3221;48.858;10.128;2022-09-03T19:50:24;16.00;99.90
6377;DHT22;3221;48.858;10.128;2022-09-03T19:53:17;16.00;99.90
6377;DHT22;3221;48.858;10.128;2022-09-03T19:56:12;16.00;99.90
6377;DHT22;3221;48.858;10.128;2022-09-03T19:59:02;16.00;99.90
6377;DHT22;3221;48.858;10.128;2022-09-03T20:01:51;16.00;99.90
6377;DHT22;3221;48.858;10.128;2022-09-03T20:04:54;16.00;99.90
6377;DHT22;3221;48.858;10.128;2022-09-03T20:07:41;15.90;99.90
6377;DHT22;3221;48.858;10.128;2022-09-03T20:10:55;15.90;99.90
6377;DHT22;3221;48.858;10.128;2022-09-03T20:13:41;15.90;99.90
6377;DHT22;3221;48.858;10.128;2022-09-03T20:19:35;15.90;99.90
6377;DHT22;3221;48.858;10.128;2022-09-03T20:22:22;15.90;99.90
6377;DHT22;3221;48.858;10.128;2022-09-03T20:30:18;15.80;99.90
6377;DHT22;3221;48.858;10.128;2022-09-03T20:32:54;15.80;99.90
6377;DHT22;3221;48.858;10.128;2022-09-03T20:48:57;15.90;99.90
6377;DHT22;3221;48.858;10.128;2022-09-03T20:54:20;15.80;99.90
6377;DHT22;3221;48.858;10.128;2022-09-03T20:57:09;15.80;99.90
6377;DHT22;3221;48.858;10.128;2022-09-03T21:00:15;15.80;99.90
6377;DHT22;3221;48.858;10.128;2022-09-03T21:03:01;15.80;99.90
6377;DHT22;3221;48.858;10.128;2022-09-03T21:11:46;15.70;99.90
6377;DHT22;3221;48.858;10.128;2022-09-03T21:20:20;15.80;99.90
6377;DHT22;3221;48.858;10.128;2022-09-03T21:23:21;15.80;99.90
6377;DHT22;3221;48.858;10.128;2022-09-03T21:26:22;15.80;99.90
6377;DHT22;3221;48.858;10.128;2022-09-03T21:32:03;15.80;99.90
6377;DHT22;3221;48.858;10.128;2022-09-03T21:37:23;15.80;99.90
6377;DHT22;3221;48.858;10.128;2022-09-03T21:39:59;15.80;99.90
6377;DHT22;3221;48.858;10.128;2022-09-03T21:42:37;15.70;99.90
6377;DHT22;3221;48.858;10.128;2022-09-03T21:45:36;15.70;99.90
6377;DHT22;3221;48.858;10.128;2022-09-03T21:48:09;15.70;99.90
6377;DHT22;3221;48.858;10.128;2022-09-03T21:50:50;15.70;99.90
6377;DHT22;3221;48.858;10.128;2022-09-03T22:04:42;15.70;99.90
6377;DHT22;3221;48.858;10.128;2022-09-03T22:10:40;15.60;99.90
6377;DHT22;3221;48.858;10.128;2022-09-03T22:13:30;15.70;99.90
6377;DHT22;3221;48.858;10.128;2022-09-03T22:19:10;15.70;99.90
6377;DHT22;3221;48.858;10.128;2022-09-03T22:21:57;15.70;99.90
6377;DHT22;3221;48.858;10.128;2022-09-03T22:24:35;15.80;99.90